Time;durP1;ratioP1;P1;durP2;ratioP2;P2;SDS_P1;SDS_P2;PMS_P1;PMS_P2;Temp;Humidity;BMP_temperature;BMP_pressure;BME280_temperature;BME280_humidity;BME280_pressure;Samples;Min_cycle;Max_cycle;Signal;HPM_P1;HPM_P2
2022/04/21 00:00:15;;;;;;;1.63;0.90;;;9.60;99.90;;;;;;5083751;28;20040;-76
2022/04/21 00:02:41;;;;;;;1.33;1.15;;;9.50;99.90;;;;;;5077253;28;20032;-76
2022/04/21 00:05:09;;;;;;;0.85;0.70;;;9.50;99.90;;;;;;5090436;28;20024;-76
2022/04/21 00:07:35;;;;;;;0.60;0.60;;;9.50;99.90;;;;;;5073626;28;20025;-75
2022/04/21 00:10:02;;;;;;;0.57;0.50;;;9.50;99.90;;;;;;5085489;28;20031;-76
2022/04/21 00:12:28;;;;;;;0.60;0.60;;;9.50;99.90;;;;;;5087340;28;20073;-76
2022/04/21 00:14:54;;;;;;;0.68;0.50;;;9.40;99.90;;;;;;5090277;28;20122;-76
2022/04/21 00:17:20;;;;;;;1.60;0.98;;;9.40;99.90;;;;;;5090150;28;20544;-75
2022/04/21 00:19:46;;;;;;;0.70;0.63;;;9.50;99.90;;;;;;5091655;28;20108;-76
2022/04/21 00:24:55;;;;;;;0.65;0.65;;;9.40;99.90;;;;;;5083902;28;20027;-76
2022/04/21 00:27:21;;;;;;;0.40;0.40;;;9.30;99.90;;;;;;5089764;28;20032;-76
2022/04/21 00:29:47;;;;;;;1.35;0.70;;;9.30;99.90;;;;;;5089963;28;20016;-76
2022/04/21 00:32:13;;;;;;;0.50;0.50;;;9.50;99.90;;;;;;5089522;28;20592;-76
2022/04/21 00:34:39;;;;;;;0.98;0.60;;;9.40;99.90;;;;;;5091528;28;20103;-76
2022/04/21 00:37:05;;;;;;;0.32;0.32;;;9.40;99.90;;;;;;5089331;28;20111;-75
2022/04/21 00:39:32;;;;;;;1.02;0.60;;;9.50;99.90;;;;;;5079282;28;20025;-76
2022/04/21 00:41:59;;;;;;;0.70;0.70;;;9.50;99.90;;;;;;5077661;28;20028;-75
2022/04/21 00:44:25;;;;;;;0.45;0.40;;;9.30;99.90;;;;;;5089257;28;20148;-75
2022/04/21 00:46:52;;;;;;;0.60;0.60;;;9.30;99.90;;;;;;5091762;28;20020;-75
2022/04/21 00:49:20;;;;;;;1.02;0.80;;;9.30;99.90;;;;;;5070138;28;20516;-76
2022/04/21 00:51:46;;;;;;;0.52;0.52;;;9.40;99.90;;;;;;5078158;28;20481;-76
2022/04/21 00:54:13;;;;;;;0.55;0.40;;;9.30;99.90;;;;;;5081529;28;20027;-76
2022/04/21 00:56:41;;;;;;;1.08;0.63;;;9.30;99.90;;;;;;5089186;28;20048;-76
2022/04/21 00:59:09;;;;;;;0.73;0.70;;;9.40;99.90;;;;;;5086442;28;20035;-76
2022/04/21 01:04:21;;;;;;;0.70;0.63;;;9.50;99.90;;;;;;5078522;28;20048;-76
2022/04/21 01:06:46;;;;;;;0.63;0.63;;;9.50;99.90;;;;;;5083911;28;20024;-76
2022/04/21 01:09:12;;;;;;;4.35;0.85;;;9.50;99.90;;;;;;5088414;28;20107;-76
2022/04/21 01:11:39;;;;;;;0.55;0.52;;;9.50;99.90;;;;;;5089583;28;20540;-75
2022/04/21 01:14:05;;;;;;;2.50;0.77;;;9.50;99.90;;;;;;5089055;28;20020;-76
2022/04/21 01:16:31;;;;;;;0.50;0.50;;;9.30;99.90;;;;;;5090297;28;20012;-76
2022/04/21 01:18:56;;;;;;;0.68;0.52;;;9.40;99.90;;;;;;5088807;28;20038;-75
2022/04/21 01:21:22;;;;;;;0.80;0.60;;;9.30;99.90;;;;;;5089010;28;20515;-76
2022/04/21 01:23:48;;;;;;;1.20;0.80;;;9.30;99.90;;;;;;5089172;28;20032;-75
2022/04/21 01:26:16;;;;;;;1.00;0.60;;;9.40;99.90;;;;;;5087832;28;20028;-76
2022/04/21 01:28:42;;;;;;;0.60;0.60;;;9.40;99.90;;;;;;5090649;28;20027;-76
2022/04/21 01:31:08;;;;;;;0.47;0.47;;;9.40;99.90;;;;;;5088692;28;20213;-76
2022/04/21 01:33:34;;;;;;;1.77;0.60;;;9.40;99.90;;;;;;5079346;28;20035;-76
2022/04/21 01:35:59;;;;;;;1.35;0.50;;;9.50;99.90;;;;;;5078116;28;20056;-76
2022/04/21 01:41:09;;;;;;;0.93;0.70;;;9.40;99.90;;;;;;5087538;28;20039;-75
2022/04/21 01:43:36;;;;;;;0.50;0.50;;;9.30;99.90;;;;;;5087177;28;20028;-75
2022/04/21 01:46:02;;;;;;;2.05;0.60;;;9.30;99.90;;;;;;5087161;28;20043;-76
2022/04/21 01:48:28;;;;;;;0.60;0.60;;;9.30;99.90;;;;;;5076562;28;20056;-76
2022/04/21 01:50:54;;;;;;;0.52;0.50;;;9.30;99.90;;;;;;5077372;28;20419;-75
2022/04/21 01:53:19;;;;;;;1.25;0.73;;;9.30;99.90;;;;;;5088639;28;20724;-76
2022/04/21 01:55:46;;;;;;;0.93;0.90;;;9.30;99.90;;;;;;5090317;28;20043;-76
2022/04/21 01:58:12;;;;;;;0.55;0.50;;;9.30;99.90;;;;;;5087770;28;20028;-76
2022/04/21 02:00:39;;;;;;;1.75;0.60;;;9.30;99.90;;;;;;5078361;28;20094;-76
2022/04/21 02:03:04;;;;;;;0.50;0.50;;;9.30;99.90;;;;;;5078525;28;20032;-75
2022/04/21 02:05:31;;;;;;;0.95;0.73;;;9.40;99.90;;;;;;5088586;28;20022;-75
2022/04/21 02:07:56;;;;;;;1.02;0.65;;;9.40;99.90;;;;;;5089007;28;20029;-76
2022/04/21 02:10:22;;;;;;;2.28;0.70;;;9.30;99.90;;;;;;5077252;28;20069;-75
2022/04/21 02:12:48;;;;;;;0.63;0.60;;;9.30;99.90;;;;;;5073413;28;20107;-76
2022/04/21 02:15:17;;;;;;;0.90;0.70;;;9.30;99.90;;;;;;5068296;28;20039;-76
2022/04/21 02:17:44;;;;;;;0.68;0.60;;;9.30;99.90;;;;;;5088274;28;20039;-76
2022/04/21 02:20:12;;;;;;;1.60;0.90;;;9.30;99.90;;;;;;5091161;28;20509;-76
2022/04/21 02:22:38;;;;;;;0.50;0.50;;;9.30;99.90;;;;;;5093911;28;20153;-76
2022/04/21 02:25:06;;;;;;;0.65;0.60;;;9.30;99.90;;;;;;5090799;28;20027;-75
2022/04/21 02:27:32;;;;;;;0.73;0.68;;;9.30;99.90;;;;;;5092358;28;20107;-76
2022/04/21 02:29:59;;;;;;;0.90;0.75;;;9.40;99.90;;;;;;5091698;28;20024;-76
2022/04/21 02:32:25;;;;;;;1.30;0.73;;;9.30;99.90;;;;;;5088843;28;20119;-76
2022/04/21 02:34:53;;;;;;;0.52;0.50;;;9.40;99.90;;;;;;5094177;28;20031;-76
2022/04/21 02:37:20;;;;;;;1.45;0.98;;;9.40;99.90;;;;;;5090313;28;20501;-76
2022/04/21 02:39:45;;;;;;;0.68;0.50;;;9.30;99.90;;;;;;5089095;28;20024;-75
2022/04/21 02:42:11;;;;;;;0.95;0.50;;;9.40;99.90;;;;;;5089664;28;20602;-76
2022/04/21 02:44:38;;;;;;;1.08;0.60;;;9.50;99.90;;;;;;5089613;28;20020;-76
2022/04/21 02:47:06;;;;;;;0.82;0.80;;;9.50;99.90;;;;;;5091886;28;20028;-76
2022/04/21 02:49:32;;;;;;;0.50;0.50;;;9.40;99.90;;;;;;5089470;28;20020;-75
2022/04/21 02:51:58;;;;;;;0.75;0.60;;;9.40;99.90;;;;;;5085927;28;20051;-75
2022/04/21 02:57:20;;;;;;;0.80;0.80;;;9.30;99.90;;;;;;5091437;28;20039;-75
2022/04/21 02:59:50;;;;;;;1.13;0.63;;;9.20;99.90;;;;;;5088497;28;20074;-75
2022/04/21 03:02:16;;;;;;;0.70;0.70;;;9.20;99.90;;;;;;5091446;28;20023;-75
2022/04/21 03:04:42;;;;;;;0.50;0.50;;;9.20;99.90;;;;;;5093205;28;20073;-75
2022/04/21 03:07:07;;;;;;;0.73;0.65;;;9.20;99.90;;;;;;5089926;28;20032;-75
2022/04/21 03:09:33;;;;;;;0.50;0.50;;;9.10;99.90;;;;;;5091302;28;20020;-75
2022/04/21 03:12:03;;;;;;;0.47;0.47;;;9.20;99.90;;;;;;5091257;28;20032;-76
2022/04/21 03:14:30;;;;;;;0.60;0.60;;;9.30;99.90;;;;;;5091024;28;20055;-76
2022/04/21 03:16:56;;;;;;;1.92;0.80;;;9.30;99.90;;;;;;5092008;28;20030;-75
2022/04/21 03:19:22;;;;;;;0.60;0.60;;;9.30;99.90;;;;;;5080113;28;20029;-75
2022/04/21 03:24:32;;;;;;;0.70;0.70;;;9.20;99.90;;;;;;5091215;28;20084;-75
2022/04/21 03:26:58;;;;;;;0.70;0.70;;;9.20;99.90;;;;;;5090024;28;20016;-75
2022/04/21 03:29:24;;;;;;;0.82;0.70;;;9.20;99.90;;;;;;5088662;28;20023;-75
2022/04/21 03:31:50;;;;;;;2.90;0.60;;;9.20;99.90;;;;;;5076759;28;20024;-75
2022/04/21 03:34:17;;;;;;;0.70;0.60;;;9.20;99.90;;;;;;5090892;28;20058;-75
2022/04/21 03:36:48;;;;;;;0.70;0.70;;;9.20;99.90;;;;;;5077296;28;20028;-75
2022/04/21 03:39:21;;;;;;;0.90;0.70;;;9.20;99.90;;;;;;5077595;28;20020;-75
2022/04/21 03:41:53;;;;;;;1.13;0.75;;;9.20;99.90;;;;;;5090724;28;20024;-75
2022/04/21 03:44:20;;;;;;;0.77;0.60;;;9.20;99.90;;;;;;5090782;28;20523;-75
2022/04/21 03:46:46;;;;;;;0.75;0.60;;;9.20;99.90;;;;;;5092453;28;20031;-75
2022/04/21 03:49:12;;;;;;;1.50;1.00;;;9.20;99.90;;;;;;5061617;28;20020;-75
2022/04/21 03:51:37;;;;;;;0.85;0.85;;;9.10;99.90;;;;;;5067803;28;20103;-75
2022/04/21 03:54:04;;;;;;;1.00;0.50;;;9.10;99.90;;;;;;5082118;28;20032;-75
2022/04/21 03:56:30;;;;;;;0.70;0.70;;;9.20;99.90;;;;;;5073763;28;20061;-75
2022/04/21 03:58:57;;;;;;;2.63;0.75;;;9.20;99.90;;;;;;5087915;28;20046;-75
2022/04/21 04:01:23;;;;;;;1.00;1.00;;;9.20;99.90;;;;;;5089635;28;20077;-75
2022/04/21 04:03:49;;;;;;;0.73;0.55;;;9.20;99.90;;;;;;5076161;28;20529;-75
2022/04/21 04:11:57;;;;;;;1.10;0.70;;;9.30;99.90;;;;;;5045826;28;20051;-75
2022/04/21 04:14:23;;;;;;;0.52;0.52;;;9.30;99.90;;;;;;5045692;28;20029;-75
2022/04/21 04:16:48;;;;;;;0.63;0.63;;;9.30;99.90;;;;;;5025765;28;20045;-75
2022/04/21 04:19:14;;;;;;;0.60;0.60;;;9.30;99.90;;;;;;5046272;28;20637;-75
2022/04/21 04:21:40;;;;;;;0.95;0.73;;;9.20;99.90;;;;;;5046911;28;20040;-75
2022/04/21 04:24:06;;;;;;;0.50;0.50;;;9.30;99.90;;;;;;5045248;28;20029;-75
2022/04/21 04:26:32;;;;;;;0.60;0.60;;;9.30;99.90;;;;;;5047939;28;20104;-75
2022/04/21 04:28:58;;;;;;;0.50;0.50;;;9.30;99.90;;;;;;5048001;28;20021;-75
2022/04/21 04:31:24;;;;;;;0.93;0.63;;;9.20;99.90;;;;;;5042825;28;20079;-75
2022/04/21 04:33:50;;;;;;;0.57;0.50;;;9.20;99.90;;;;;;5045215;28;20044;-75
2022/04/21 04:36:16;;;;;;;0.70;0.70;;;9.20;99.90;;;;;;5046463;28;20048;-75
2022/04/21 04:38:45;;;;;;;1.55;1.13;;;9.10;99.90;;;;;;5044932;28;20481;-75
2022/04/21 04:43:56;;;;;;;0.80;0.80;;;9.10;99.90;;;;;;5028197;28;20096;-75
2022/04/21 04:46:40;;;;;;;0.85;0.70;;;9.00;99.90;;;;;;5048100;28;20060;-75
2022/04/21 04:49:09;;;;;;;0.98;0.70;;;9.10;99.90;;;;;;5088715;28;20048;-75
2022/04/21 04:51:41;;;;;;;0.63;0.63;;;9.20;99.90;;;;;;5088014;28;20497;-75
2022/04/21 04:54:08;;;;;;;0.60;0.60;;;9.20;99.90;;;;;;5085705;28;20101;-75
2022/04/21 04:56:35;;;;;;;0.77;0.70;;;9.20;99.90;;;;;;5075364;28;20036;-75
2022/04/21 04:59:01;;;;;;;0.60;0.60;;;9.10;99.90;;;;;;5088894;28;20081;-75
2022/04/21 05:01:29;;;;;;;0.60;0.60;;;9.20;99.90;;;;;;5076645;28;20485;-75
2022/04/21 05:04:05;;;;;;;0.70;0.70;;;9.20;99.90;;;;;;5085484;28;20110;-75
2022/04/21 05:06:35;;;;;;;0.60;0.60;;;9.30;99.90;;;;;;5087579;28;20024;-75
2022/04/21 05:09:02;;;;;;;0.68;0.68;;;9.30;99.90;;;;;;5086769;28;20061;-75
2022/04/21 05:11:27;;;;;;;0.77;0.77;;;9.20;99.90;;;;;;5089676;28;20036;-75
2022/04/21 05:13:54;;;;;;;0.70;0.70;;;9.20;99.90;;;;;;5073934;28;20028;-75
2022/04/21 05:16:20;;;;;;;1.10;0.80;;;9.20;99.90;;;;;;5062210;28;20108;-75
2022/04/21 05:18:47;;;;;;;1.27;1.08;;;9.20;99.90;;;;;;5076156;28;20107;-75
2022/04/21 05:21:12;;;;;;;1.52;1.10;;;9.20;99.90;;;;;;5086131;28;20105;-75
2022/04/21 05:23:40;;;;;;;1.90;1.25;;;9.20;99.90;;;;;;5087997;28;20506;-75
2022/04/21 05:26:06;;;;;;;1.00;0.90;;;9.20;99.90;;;;;;5089644;28;20024;-75
2022/04/21 05:28:32;;;;;;;1.17;1.08;;;9.20;99.90;;;;;;5090793;28;20572;-75
2022/04/21 05:30:58;;;;;;;1.17;1.05;;;9.20;99.90;;;;;;5088451;28;20046;-75
2022/04/21 05:33:26;;;;;;;1.05;0.90;;;9.30;99.90;;;;;;5087942;28;20016;-75
2022/04/21 05:35:54;;;;;;;1.20;1.10;;;9.30;99.90;;;;;;5086705;28;20130;-75
2022/04/21 05:38:21;;;;;;;0.82;0.80;;;9.30;99.90;;;;;;5089245;28;20031;-75
2022/04/21 05:40:48;;;;;;;0.80;0.80;;;9.20;99.90;;;;;;5090766;28;20059;-75
2022/04/21 05:43:18;;;;;;;1.00;0.75;;;9.30;99.90;;;;;;5088729;28;20073;-75
2022/04/21 05:45:45;;;;;;;0.80;0.80;;;9.30;99.90;;;;;;5084613;28;20016;-75
2022/04/21 05:48:12;;;;;;;1.02;0.98;;;9.30;99.90;;;;;;5088783;28;20021;-75
2022/04/21 05:50:38;;;;;;;0.70;0.70;;;9.30;99.90;;;;;;5088955;28;20016;-75
2022/04/21 05:53:04;;;;;;;0.82;0.82;;;9.30;99.90;;;;;;5089847;28;20046;-75
2022/04/21 05:55:30;;;;;;;0.90;0.85;;;9.30;99.90;;;;;;5092979;28;20051;-75
2022/04/21 05:57:56;;;;;;;2.28;0.80;;;9.30;99.90;;;;;;5084220;28;20037;-74
2022/04/21 06:00:22;;;;;;;0.70;0.70;;;9.30;99.90;;;;;;5080629;28;20034;-75
2022/04/21 06:02:48;;;;;;;1.00;0.90;;;9.30;99.90;;;;;;5092534;28;20083;-75
2022/04/21 06:05:14;;;;;;;1.33;1.23;;;9.30;99.90;;;;;;5092646;28;20518;-75
2022/04/21 06:07:40;;;;;;;1.30;1.02;;;9.30;99.90;;;;;;5079485;28;20048;-75
2022/04/21 06:10:06;;;;;;;2.38;1.20;;;9.30;99.90;;;;;;5089788;28;20095;-75
2022/04/21 06:12:34;;;;;;;2.03;1.10;;;9.30;99.90;;;;;;5090100;28;20027;-75
2022/04/21 06:15:00;;;;;;;1.27;1.00;;;9.30;99.90;;;;;;5091009;28;20512;-75
2022/04/21 06:17:26;;;;;;;2.03;1.42;;;9.20;99.90;;;;;;5092500;28;20033;-75
2022/04/21 06:19:51;;;;;;;2.50;1.27;;;9.20;99.90;;;;;;5090335;28;20432;-75
2022/04/21 06:22:17;;;;;;;3.05;1.58;;;9.30;99.90;;;;;;5087607;28;20047;-75
2022/04/21 06:24:43;;;;;;;2.15;1.63;;;9.30;99.90;;;;;;5092282;28;20020;-75
2022/04/21 06:27:08;;;;;;;2.40;1.55;;;9.30;99.90;;;;;;5082293;28;20512;-75
2022/04/21 06:29:35;;;;;;;2.08;1.40;;;9.30;99.90;;;;;;5077550;28;20020;-75
2022/04/21 06:32:01;;;;;;;1.50;1.40;;;9.40;99.90;;;;;;5076066;28;20016;-75
2022/04/21 06:34:27;;;;;;;1.63;1.52;;;9.30;99.90;;;;;;5093146;28;20038;-75
2022/04/21 06:36:52;;;;;;;5.35;2.00;;;9.30;99.90;;;;;;5091440;28;20020;-75
2022/04/21 06:39:18;;;;;;;1.48;1.38;;;9.20;99.90;;;;;;5090687;28;20047;-75
2022/04/21 06:41:43;;;;;;;2.28;2.08;;;9.20;99.90;;;;;;5091606;28;20463;-75
2022/04/21 06:49:38;;;;;;;6.32;2.45;;;9.30;99.90;;;;;;5061124;28;20055;-74
2022/04/21 06:52:04;;;;;;;2.47;2.03;;;9.30;99.90;;;;;;5073782;28;20017;-74
2022/04/21 06:54:30;;;;;;;3.17;2.10;;;9.30;99.90;;;;;;5083276;28;20030;-74
2022/04/21 06:56:56;;;;;;;1.63;1.52;;;9.30;99.90;;;;;;5088224;28;20048;-75
2022/04/21 06:59:22;;;;;;;2.03;1.83;;;9.30;99.90;;;;;;5088077;28;20020;-75
2022/04/21 07:01:47;;;;;;;2.70;2.20;;;9.30;99.90;;;;;;5076888;28;20028;-75
2022/04/21 07:04:14;;;;;;;1.90;1.80;;;9.30;99.90;;;;;;5089950;28;20496;-75
2022/04/21 07:06:40;;;;;;;3.58;2.10;;;9.40;99.90;;;;;;5078469;28;20032;-75
2022/04/21 07:09:05;;;;;;;3.15;2.20;;;9.40;99.90;;;;;;5070712;28;20417;-75
2022/04/21 07:11:32;;;;;;;3.53;2.10;;;9.40;99.90;;;;;;5075906;28;20051;-75
2022/04/21 07:13:57;;;;;;;1.70;1.60;;;9.40;99.90;;;;;;5090509;28;20063;-75
2022/04/21 07:16:23;;;;;;;2.10;1.73;;;9.50;99.90;;;;;;5085060;28;20486;-75
2022/04/21 07:18:49;;;;;;;1.75;1.63;;;9.50;99.90;;;;;;5081687;28;20085;-75
2022/04/21 07:21:15;;;;;;;2.17;1.73;;;9.50;99.90;;;;;;5073111;28;20070;-75
2022/04/21 07:23:42;;;;;;;2.22;1.90;;;9.50;99.90;;;;;;5076864;28;20024;-75
2022/04/21 07:26:07;;;;;;;1.50;1.40;;;9.50;99.90;;;;;;5055264;28;20029;-75
2022/04/21 07:28:33;;;;;;;1.70;1.60;;;9.50;99.90;;;;;;5082520;28;20389;-75
2022/04/21 07:31:00;;;;;;;1.73;1.58;;;9.50;99.90;;;;;;5087712;28;20386;-75
2022/04/21 07:33:25;;;;;;;2.17;1.85;;;9.50;99.90;;;;;;5079594;28;20074;-75
2022/04/21 07:35:51;;;;;;;1.58;1.48;;;9.50;99.90;;;;;;5070779;28;20543;-75
2022/04/21 07:38:17;;;;;;;1.50;1.40;;;9.50;99.90;;;;;;5075999;28;20069;-75
2022/04/21 07:40:43;;;;;;;1.38;1.10;;;9.60;99.90;;;;;;5085074;28;20520;-76
2022/04/21 07:43:09;;;;;;;2.28;1.67;;;9.60;99.90;;;;;;5089415;28;20143;-75
2022/04/21 07:45:40;;;;;;;2.47;1.40;;;9.70;99.90;;;;;;5088970;28;20111;-75
2022/04/21 07:48:06;;;;;;;1.95;1.58;;;9.70;99.90;;;;;;5086513;28;20546;-75
2022/04/21 07:50:32;;;;;;;1.48;1.38;;;9.70;99.90;;;;;;5075028;28;20076;-75
2022/04/21 07:53:13;;;;;;;1.58;1.48;;;9.70;99.90;;;;;;5090116;28;20161;-75
2022/04/21 07:55:40;;;;;;;1.63;1.20;;;9.70;99.90;;;;;;5076829;28;20052;-75
2022/04/21 07:58:07;;;;;;;1.83;1.50;;;9.80;99.90;;;;;;5087239;28;20039;-75
2022/04/21 08:00:38;;;;;;;1.63;1.52;;;9.80;99.90;;;;;;5072247;28;20035;-75
2022/04/21 08:03:04;;;;;;;1.00;1.00;;;9.90;99.90;;;;;;5067968;28;20028;-74
2022/04/21 08:05:30;;;;;;;2.47;1.38;;;9.90;99.90;;;;;;5089325;28;20028;-74
2022/04/21 08:07:57;;;;;;;2.63;1.27;;;9.80;99.90;;;;;;5060655;28;20040;-75
2022/04/21 08:10:24;;;;;;;2.72;1.00;;;9.90;99.90;;;;;;5067699;28;20198;-75
2022/04/21 08:12:53;;;;;;;0.98;0.98;;;9.90;99.90;;;;;;5069431;28;20025;-75
2022/04/21 08:15:27;;;;;;;1.10;1.00;;;9.90;99.90;;;;;;5071398;28;20043;-75
2022/04/21 08:17:55;;;;;;;1.25;1.20;;;10.00;99.90;;;;;;5087656;28;20031;-75
2022/04/21 08:20:22;;;;;;;2.22;0.90;;;10.00;99.90;;;;;;5088337;28;20033;-75
2022/04/21 08:22:48;;;;;;;1.42;1.30;;;9.90;99.90;;;;;;5087498;28;20120;-76
2022/04/21 08:33:28;;;;;;;1.75;1.33;;;9.90;99.90;;;;;;5088585;28;20582;-76
2022/04/21 08:35:58;;;;;;;1.33;1.23;;;9.90;99.90;;;;;;5088134;28;20036;-75
2022/04/21 08:38:28;;;;;;;1.30;1.20;;;10.00;99.90;;;;;;5064307;28;20016;-77
2022/04/21 08:40:54;;;;;;;1.40;1.30;;;9.90;99.90;;;;;;5082006;28;20073;-76
2022/04/21 08:43:22;;;;;;;2.15;1.50;;;9.90;99.90;;;;;;5088302;28;20024;-75
2022/04/21 08:45:48;;;;;;;1.48;1.33;;;9.90;99.90;;;;;;5088211;28;20024;-77
2022/04/21 08:48:20;;;;;;;1.90;1.60;;;10.00;99.90;;;;;;5085650;28;20024;-76
2022/04/21 08:50:46;;;;;;;2.25;1.80;;;10.00;99.90;;;;;;5085970;28;20025;-75
2022/04/21 08:53:19;;;;;;;1.50;1.40;;;10.00;99.90;;;;;;5087700;28;20016;-76
2022/04/21 08:55:46;;;;;;;2.47;1.60;;;10.00;99.90;;;;;;5089950;28;20063;-75
2022/04/21 08:58:11;;;;;;;2.00;1.70;;;10.00;99.90;;;;;;5076478;28;20119;-76
2022/04/21 09:00:38;;;;;;;3.47;3.17;;;10.00;99.90;;;;;;5077862;28;20111;-77
2022/04/21 09:03:06;;;;;;;7.90;5.88;;;10.00;99.90;;;;;;5067091;28;20024;-76
2022/04/21 09:05:32;;;;;;;9.38;7.47;;;10.00;99.90;;;;;;5086085;28;20100;-75
2022/04/21 09:07:59;;;;;;;8.63;6.47;;;10.00;99.90;;;;;;5078899;28;20506;-75
2022/04/21 09:10:27;;;;;;;6.18;5.00;;;10.10;99.90;;;;;;5089026;28;20051;-77
2022/04/21 09:12:56;;;;;;;6.65;5.25;;;10.10;99.90;;;;;;5085344;28;20055;-75
2022/04/21 09:15:32;;;;;;;11.60;8.30;;;10.10;99.90;;;;;;5083198;28;20035;-75
2022/04/21 09:18:00;;;;;;;8.50;6.90;;;10.10;99.90;;;;;;5084470;28;20028;-75
2022/04/21 09:20:33;;;;;;;9.93;5.88;;;10.20;99.90;;;;;;5087662;28;20028;-74
2022/04/21 09:23:00;;;;;;;6.63;4.78;;;10.10;99.90;;;;;;5086748;28;20527;-75
2022/04/21 09:25:30;;;;;;;14.18;9.00;;;10.10;99.90;;;;;;5087153;28;20129;-74
2022/04/21 09:27:57;;;;;;;16.55;13.38;;;10.20;99.90;;;;;;5077763;28;20036;-75
2022/04/21 09:30:24;;;;;;;16.65;11.10;;;10.20;99.90;;;;;;5079356;28;20114;-75
2022/04/21 09:32:58;;;;;;;14.88;10.57;;;10.20;99.90;;;;;;5087790;28;20031;-75
2022/04/21 09:35:33;;;;;;;13.13;10.23;;;10.30;99.90;;;;;;5055520;28;20028;-74
2022/04/21 09:38:05;;;;;;;11.10;8.95;;;10.30;99.90;;;;;;5078573;28;20110;-74
2022/04/21 09:40:32;;;;;;;10.20;8.13;;;10.40;99.90;;;;;;5088749;28;20028;-75
2022/04/21 09:43:02;;;;;;;8.77;6.47;;;10.50;99.90;;;;;;5082976;28;20032;-75
2022/04/21 09:48:20;;;;;;;10.93;8.68;;;10.70;99.90;;;;;;5079954;28;20040;-75
2022/04/21 09:50:51;;;;;;;9.68;6.93;;;10.70;99.90;;;;;;5087430;28;20031;-75
2022/04/21 09:53:21;;;;;;;10.15;7.90;;;10.80;99.90;;;;;;5086445;28;20036;-74
2022/04/21 09:55:49;;;;;;;11.02;8.52;;;10.90;99.90;;;;;;5058330;28;20053;-75
2022/04/21 09:58:16;;;;;;;11.82;8.40;;;11.10;99.90;;;;;;5085785;28;20028;-75
2022/04/21 10:00:43;;;;;;;8.23;5.57;;;11.30;99.90;;;;;;5086927;28;20032;-75
2022/04/21 10:03:10;;;;;;;10.73;6.07;;;11.20;99.90;;;;;;5086574;28;20115;-75
2022/04/21 10:05:38;;;;;;;8.70;6.03;;;11.40;99.90;;;;;;5086058;28;20024;-75
2022/04/21 10:08:06;;;;;;;12.82;8.90;;;11.30;99.90;;;;;;5079020;28;20252;-75
2022/04/21 10:10:33;;;;;;;14.98;8.50;;;11.30;99.90;;;;;;5088819;28;20024;-75
2022/04/21 10:13:01;;;;;;;24.00;12.57;;;11.30;99.90;;;;;;5086879;28;20024;-75
2022/04/21 10:15:28;;;;;;;20.88;11.88;;;11.20;99.90;;;;;;5082915;28;20028;-75
2022/04/21 10:17:54;;;;;;;15.10;8.75;;;11.50;99.90;;;;;;5064345;28;20396;-75
2022/04/21 10:20:24;;;;;;;12.40;7.70;;;11.60;99.90;;;;;;5086378;28;20028;-75
2022/04/21 10:22:52;;;;;;;9.68;6.10;;;11.50;99.90;;;;;;5088652;28;20102;-75
2022/04/21 10:25:23;;;;;;;8.32;5.20;;;11.40;99.90;;;;;;5086628;28;20043;-75
2022/04/21 10:27:49;;;;;;;8.23;5.95;;;11.50;99.90;;;;;;5079188;28;20020;-75
2022/04/21 10:30:25;;;;;;;11.70;5.78;;;11.50;99.90;;;;;;5077960;28;20024;-76
2022/04/21 10:32:59;;;;;;;7.22;5.53;;;11.40;99.90;;;;;;5086920;28;20024;-75
2022/04/21 10:35:26;;;;;;;5.70;3.72;;;11.30;99.90;;;;;;5085793;28;20032;-75
2022/04/21 10:38:14;;;;;;;5.90;4.22;;;11.20;99.90;;;;;;5079558;28;20020;-75
2022/04/21 10:41:10;;;;;;;5.90;3.97;;;11.10;99.90;;;;;;5087896;28;20147;-76
2022/04/21 10:43:48;;;;;;;3.38;3.08;;;11.10;99.90;;;;;;5092027;28;20103;-76
2022/04/21 10:46:21;;;;;;;3.63;3.28;;;11.10;99.90;;;;;;5090552;28;20103;-75
2022/04/21 10:48:48;;;;;;;3.67;2.80;;;11.00;99.90;;;;;;5087218;28;20035;-75
2022/04/21 10:57:16;;;;;;;5.05;3.67;;;11.00;99.90;;;;;;5000906;28;20052;-79
2022/04/21 11:00:10;;;;;;;7.55;5.05;;;11.00;99.90;;;;;;4994811;28;20041;-79
2022/04/21 11:02:43;;;;;;;8.35;5.40;;;10.90;99.90;;;;;;5005017;28;20026;-79
2022/04/21 11:05:31;;;;;;;8.93;5.55;;;10.90;99.90;;;;;;5007207;28;20045;-79
2022/04/21 11:08:02;;;;;;;10.23;6.30;;;11.00;99.90;;;;;;4999630;28;20033;-79
2022/04/21 11:10:43;;;;;;;10.07;6.40;;;10.90;99.90;;;;;;5009289;28;20022;-79
2022/04/21 11:13:58;;;;;;;7.97;5.45;;;10.90;99.90;;;;;;5007166;28;20038;-78
2022/04/21 11:16:45;;;;;;;10.15;6.50;;;10.90;99.90;;;;;;5003614;28;20145;-79
2022/04/21 11:19:28;;;;;;;8.00;5.32;;;10.90;99.90;;;;;;4999906;28;20038;-78
2022/04/21 11:22:04;;;;;;;7.70;5.07;;;10.90;99.90;;;;;;4999536;28;20054;-78
2022/04/21 11:25:01;;;;;;;7.68;5.40;;;10.90;99.90;;;;;;4998089;28;20071;-78
2022/04/21 11:27:28;;;;;;;11.73;8.05;;;11.00;99.90;;;;;;4996163;28;20121;-78
2022/04/21 11:30:08;;;;;;;19.48;11.02;;;11.00;99.90;;;;;;4989940;28;20015;-79
2022/04/21 11:32:34;;;;;;;19.05;12.15;;;10.90;99.90;;;;;;5072425;28;20603;-79
2022/04/21 11:35:10;;;;;;;19.27;11.95;;;10.90;99.90;;;;;;5089323;28;20057;-79
2022/04/21 11:37:45;;;;;;;20.27;10.88;;;10.90;99.90;;;;;;5083073;28;20024;-78
2022/04/21 11:40:22;;;;;;;19.02;11.00;;;10.90;99.90;;;;;;5087011;28;20020;-79
2022/04/21 11:42:51;;;;;;;17.38;10.40;;;11.00;99.90;;;;;;5075009;28;20056;-79
2022/04/21 11:45:22;;;;;;;24.98;14.95;;;10.90;99.90;;;;;;5066125;28;20517;-78
2022/04/21 11:47:48;;;;;;;24.27;14.23;;;10.90;99.90;;;;;;5086197;28;20088;-79
2022/04/21 11:50:28;;;;;;;24.45;15.90;;;10.90;99.90;;;;;;5087594;28;20091;-78
2022/04/21 11:52:55;;;;;;;24.27;14.98;;;11.00;99.90;;;;;;5058721;28;20044;-79
2022/04/21 11:55:27;;;;;;;23.67;14.10;;;10.90;99.90;;;;;;5076198;28;20097;-78
2022/04/21 11:57:52;;;;;;;21.60;11.77;;;10.90;99.90;;;;;;5074734;28;20070;-78
2022/04/21 12:06:28;;;;;;;25.23;12.68;;;10.90;99.90;;;;;;5060121;28;20044;-78
2022/04/21 12:08:48;;;;;;;14.15;8.90;;;11.00;99.90;;;;;;5067032;28;20042;-78
2022/04/21 12:11:19;;;;;;;12.65;8.57;;;11.10;99.90;;;;;;5059603;28;20060;-78
2022/04/21 12:13:46;;;;;;;11.48;7.15;;;11.10;99.90;;;;;;5068077;28;20024;-78
2022/04/21 12:16:45;;;;;;;8.32;5.43;;;11.10;99.90;;;;;;5075692;28;20048;-78
2022/04/21 12:19:32;;;;;;;7.50;5.05;;;11.10;99.90;;;;;;5076337;28;20036;-78
2022/04/21 12:22:20;;;;;;;7.10;4.93;;;11.10;99.90;;;;;;5074904;28;20035;-78
2022/04/21 12:24:54;;;;;;;6.03;4.57;;;11.20;99.90;;;;;;5074902;28;20023;-78
2022/04/21 12:27:34;;;;;;;7.75;4.13;;;11.20;99.90;;;;;;5073107;28;20037;-79
2022/04/21 12:30:04;;;;;;;5.22;4.03;;;11.20;99.90;;;;;;5074119;28;20101;-79
2022/04/21 12:32:40;;;;;;;4.97;3.90;;;11.30;99.90;;;;;;5058239;28;20024;-79
2022/04/21 12:35:08;;;;;;;4.75;3.30;;;11.20;99.90;;;;;;5068149;28;20582;-79
2022/04/21 12:38:50;;;;;;;4.15;3.47;;;11.20;99.90;;;;;;5077300;28;20025;-79
2022/04/21 12:40:37;;;;;;;5.85;3.63;;;11.30;99.90;;;;;;5062479;28;20578;-79
2022/04/21 12:43:03;;;;;;;7.95;4.82;;;11.30;99.90;;;;;;5076097;28;20089;-79
2022/04/21 12:45:29;;;;;;;7.78;4.57;;;11.30;99.90;;;;;;5072654;28;20498;-79
2022/04/21 12:47:54;;;;;;;5.15;4.63;;;11.40;99.90;;;;;;5064805;28;20099;-79
2022/04/21 12:50:24;;;;;;;7.15;4.88;;;11.50;99.90;;;;;;5076409;28;20012;-80
2022/04/21 12:52:53;;;;;;;7.05;5.13;;;11.40;99.90;;;;;;5081510;28;20063;-79
2022/04/21 12:55:19;;;;;;;11.75;6.47;;;11.50;99.90;;;;;;5067298;28;20048;-79
2022/04/21 12:58:26;;;;;;;7.75;5.45;;;11.60;99.90;;;;;;5071459;28;20417;-80
2022/04/21 13:00:52;;;;;;;8.95;5.40;;;11.70;99.90;;;;;;5017642;28;20047;-80
2022/04/21 13:03:18;;;;;;;8.90;5.55;;;11.70;99.90;;;;;;5024618;28;20045;-80
2022/04/21 13:05:51;;;;;;;7.32;5.18;;;11.60;99.90;;;;;;5021011;28;20072;-80
2022/04/21 13:08:18;;;;;;;6.57;4.60;;;11.70;99.90;;;;;;5031158;28;20053;-80
2022/04/21 13:10:43;;;;;;;7.05;4.65;;;11.70;99.90;;;;;;5035973;28;20615;-80
2022/04/21 13:13:09;;;;;;;6.82;4.55;;;11.70;99.90;;;;;;5041360;28;20494;-79
2022/04/21 13:15:36;;;;;;;8.02;4.90;;;11.70;99.90;;;;;;5032116;28;20614;-79
2022/04/21 13:18:01;;;;;;;6.70;3.90;;;11.60;99.90;;;;;;5017109;28;20395;-79
2022/04/21 13:23:11;;;;;;;3.92;3.20;;;11.60;99.90;;;;;;5035593;28;20592;-79
2022/04/21 13:25:37;;;;;;;3.45;2.88;;;11.60;99.90;;;;;;5028882;28;20049;-79
2022/04/21 13:28:03;;;;;;;5.05;3.35;;;11.60;99.90;;;;;;5026736;28;20288;-79
2022/04/21 13:30:29;;;;;;;3.95;2.72;;;11.70;99.90;;;;;;5024100;28;20500;-79
2022/04/21 13:35:41;;;;;;;3.85;2.88;;;12.10;99.90;;;;;;5023086;28;20036;-79
2022/04/21 13:38:08;;;;;;;4.93;3.22;;;12.30;99.90;;;;;;5060009;28;20081;-79
2022/04/21 13:40:34;;;;;;;3.67;2.65;;;12.40;99.90;;;;;;5073824;28;20029;-79
2022/04/21 13:42:59;;;;;;;3.63;2.47;;;12.50;99.90;;;;;;5077656;28;20024;-79
2022/04/21 13:45:25;;;;;;;2.78;2.42;;;12.40;99.90;;;;;;5064778;28;20405;-80
2022/04/21 13:47:51;;;;;;;2.72;2.53;;;12.20;99.90;;;;;;5068086;28;20016;-79
2022/04/21 13:50:18;;;;;;;3.25;2.90;;;12.10;99.90;;;;;;5076551;28;20025;-79
2022/04/21 13:52:44;;;;;;;2.72;2.25;;;12.30;99.90;;;;;;5060169;28;20498;-79